Time;durP1;ratioP1;P1;durP2;ratioP2;P2;SDS_P1;SDS_P2;PMS_P1;PMS_P2;Temp;Humidity;BMP_temperature;BMP_pressure;BME280_temperature;BME280_humidity;BME280_pressure;Samples;Min_cycle;Max_cycle;Signal;HPM_P1;HPM_P2
2021/10/09 00:02:05;;;;;;;34.47;25.17;;;11.60;99.90;;;;;;5091911;28;20040;-66
2021/10/09 00:04:30;;;;;;;36.47;25.17;;;11.50;99.90;;;;;;5094173;28;20115;-66
2021/10/09 00:06:56;;;;;;;34.83;25.70;;;11.40;99.90;;;;;;5093981;28;20036;-66
2021/10/09 00:09:22;;;;;;;32.63;24.73;;;11.50;99.90;;;;;;5093314;28;20071;-66
2021/10/09 00:11:48;;;;;;;35.17;25.65;;;11.50;99.90;;;;;;5094067;28;20040;-66
2021/10/09 00:14:14;;;;;;;40.53;27.00;;;11.50;99.90;;;;;;5093952;28;20123;-66
2021/10/09 00:16:43;;;;;;;37.90;26.17;;;11.50;99.90;;;;;;5092527;28;20047;-66
2021/10/09 00:19:09;;;;;;;37.30;25.92;;;11.50;99.90;;;;;;5093413;28;20097;-66
2021/10/09 00:21:35;;;;;;;32.45;24.17;;;11.40;99.90;;;;;;5092016;28;20051;-66
2021/10/09 00:24:00;;;;;;;37.53;26.52;;;11.40;99.90;;;;;;5093399;28;20036;-66
2021/10/09 00:26:27;;;;;;;34.90;25.98;;;11.40;99.90;;;;;;5093435;28;20035;-66
2021/10/09 00:28:53;;;;;;;34.88;24.77;;;11.40;99.90;;;;;;5093257;28;20480;-67
2021/10/09 00:31:18;;;;;;;34.05;24.00;;;11.40;99.90;;;;;;5093423;28;20058;-66
2021/10/09 00:33:44;;;;;;;35.72;26.50;;;11.40;99.90;;;;;;5093376;28;20051;-66
2021/10/09 00:36:09;;;;;;;35.75;26.70;;;11.40;99.90;;;;;;5093177;28;20039;-66
2021/10/09 00:38:35;;;;;;;37.42;25.75;;;11.40;99.90;;;;;;5092963;28;20036;-66
2021/10/09 00:41:01;;;;;;;38.00;28.00;;;11.40;99.90;;;;;;5093158;28;20035;-66
2021/10/09 00:43:27;;;;;;;38.08;26.90;;;11.40;99.90;;;;;;5093251;28;20072;-66
2021/10/09 00:45:55;;;;;;;38.33;26.13;;;11.40;99.90;;;;;;5092873;28;20043;-66
2021/10/09 00:48:21;;;;;;;38.47;25.77;;;11.40;99.90;;;;;;5093315;28;20061;-66
2021/10/09 00:50:47;;;;;;;39.42;26.95;;;11.40;99.90;;;;;;5092955;28;20040;-66
2021/10/09 00:53:14;;;;;;;35.85;24.95;;;11.40;99.90;;;;;;5093168;28;20043;-66
2021/10/09 00:55:40;;;;;;;35.42;25.40;;;11.30;99.90;;;;;;5093291;28;20047;-66
2021/10/09 00:58:07;;;;;;;38.90;26.75;;;11.30;99.90;;;;;;5092950;28;20042;-66
2021/10/09 01:00:34;;;;;;;36.35;24.95;;;11.30;99.90;;;;;;5091522;28;20431;-66
2021/10/09 01:03:03;;;;;;;41.45;27.40;;;11.30;99.90;;;;;;5093286;28;20085;-66
2021/10/09 01:05:31;;;;;;;41.33;27.15;;;11.30;99.90;;;;;;5093188;28;20488;-66
2021/10/09 01:07:56;;;;;;;40.83;26.73;;;11.30;99.90;;;;;;5092995;28;20044;-66
2021/10/09 01:10:22;;;;;;;42.25;27.08;;;11.20;99.90;;;;;;5092667;28;20032;-66
2021/10/09 01:12:47;;;;;;;39.97;27.60;;;11.20;99.90;;;;;;5092715;28;20488;-67
2021/10/09 01:15:29;;;;;;;40.15;27.52;;;11.20;99.90;;;;;;5094632;28;20042;-67
2021/10/09 01:17:55;;;;;;;38.42;26.52;;;11.30;99.90;;;;;;5096604;28;20032;-66
2021/10/09 01:20:21;;;;;;;42.88;27.08;;;11.30;99.90;;;;;;5095053;28;20540;-66
2021/10/09 01:22:47;;;;;;;37.95;27.27;;;11.30;99.90;;;;;;5096582;28;20043;-66
2021/10/09 01:25:13;;;;;;;42.80;28.05;;;11.20;99.90;;;;;;5095221;28;20511;-66
2021/10/09 01:27:40;;;;;;;40.35;27.20;;;11.20;99.90;;;;;;5096480;28;20469;-66
2021/10/09 01:30:08;;;;;;;44.03;28.92;;;11.20;99.90;;;;;;5095282;28;20044;-66
2021/10/09 01:32:34;;;;;;;45.95;29.23;;;11.20;99.90;;;;;;5096577;28;20048;-66
2021/10/09 01:35:07;;;;;;;43.50;27.88;;;11.20;99.90;;;;;;5095108;28;20057;-67
2021/10/09 01:37:42;;;;;;;43.73;29.03;;;11.10;99.90;;;;;;5096489;28;20047;-66
2021/10/09 01:40:09;;;;;;;43.97;29.73;;;11.10;99.90;;;;;;5096150;28;20270;-66
2021/10/09 01:42:36;;;;;;;41.83;28.35;;;11.00;99.90;;;;;;5096121;28;20484;-66
2021/10/09 01:45:04;;;;;;;41.80;28.13;;;11.00;99.90;;;;;;5096331;28;20040;-66
2021/10/09 01:47:30;;;;;;;39.85;28.17;;;11.00;99.90;;;;;;5094486;28;20047;-66
2021/10/09 01:49:55;;;;;;;39.47;26.80;;;11.00;99.90;;;;;;5095585;28;20166;-66
2021/10/09 01:52:21;;;;;;;39.70;27.58;;;11.00;99.90;;;;;;5095903;28;20040;-67
2021/10/09 01:54:47;;;;;;;42.28;28.30;;;11.00;99.90;;;;;;5095991;28;20059;-66
2021/10/09 01:57:12;;;;;;;43.15;27.80;;;11.00;99.90;;;;;;5096062;28;20036;-66
2021/10/09 01:59:38;;;;;;;43.10;27.90;;;11.00;99.90;;;;;;5094315;28;20046;-66
2021/10/09 02:02:03;;;;;;;48.33;28.73;;;11.00;99.90;;;;;;5095872;28;20081;-66
2021/10/09 02:04:29;;;;;;;43.38;28.52;;;10.90;99.90;;;;;;5094576;28;20039;-66
2021/10/09 02:06:54;;;;;;;53.25;31.42;;;10.90;99.90;;;;;;5095749;28;20050;-66
2021/10/09 02:09:20;;;;;;;46.30;28.65;;;10.90;99.90;;;;;;5095669;28;20044;-66
2021/10/09 02:11:49;;;;;;;46.78;29.35;;;10.90;99.90;;;;;;5095894;28;20392;-66
2021/10/09 02:14:30;;;;;;;54.63;32.72;;;10.90;99.90;;;;;;5095760;28;20040;-66
2021/10/09 02:25:28;;;;;;;48.50;30.70;;;10.80;99.90;;;;;;5093637;28;20456;-66
2021/10/09 02:27:57;;;;;;;49.58;30.65;;;10.80;99.90;;;;;;5094123;28;20124;-66
2021/10/09 02:30:24;;;;;;;51.25;30.35;;;10.70;99.90;;;;;;5095117;28;20051;-66
2021/10/09 02:32:50;;;;;;;52.80;30.77;;;10.70;99.90;;;;;;5095366;28;20040;-66
2021/10/09 02:35:16;;;;;;;50.00;31.48;;;10.70;99.90;;;;;;5095193;28;20369;-66
2021/10/09 02:37:41;;;;;;;46.88;29.80;;;10.70;99.90;;;;;;5095102;28;20111;-66
2021/10/09 02:40:07;;;;;;;50.42;30.33;;;10.70;99.90;;;;;;5094769;28;20032;-66
2021/10/09 02:42:33;;;;;;;45.92;29.83;;;10.70;99.90;;;;;;5094966;28;20044;-66
2021/10/09 02:44:58;;;;;;;47.17;29.48;;;10.70;99.90;;;;;;5095217;28;20384;-66
2021/10/09 02:47:24;;;;;;;53.08;33.65;;;10.70;99.90;;;;;;5095421;28;20036;-66
2021/10/09 02:49:50;;;;;;;56.20;32.90;;;10.70;99.90;;;;;;5094813;28;20032;-66
2021/10/09 02:52:15;;;;;;;52.10;31.15;;;10.70;99.90;;;;;;5094521;28;20055;-66
2021/10/09 02:54:41;;;;;;;60.33;34.35;;;10.60;99.90;;;;;;5094635;28;20050;-66
2021/10/09 02:57:06;;;;;;;53.30;31.73;;;10.60;99.90;;;;;;5093367;28;20497;-66
2021/10/09 02:59:32;;;;;;;60.45;34.53;;;10.60;99.90;;;;;;5094769;28;20460;-66
2021/10/09 03:01:57;;;;;;;60.85;33.00;;;10.70;99.90;;;;;;5093593;28;20079;-66
2021/10/09 03:04:23;;;;;;;100.93;34.28;;;10.60;99.90;;;;;;5094731;28;20040;-66
2021/10/09 03:06:49;;;;;;;82.60;33.55;;;10.50;99.90;;;;;;5095296;28;20533;-66
2021/10/09 03:09:14;;;;;;;57.97;33.13;;;10.50;99.90;;;;;;5094546;28;20556;-66
2021/10/09 03:11:40;;;;;;;91.95;34.55;;;10.50;99.90;;;;;;5094898;28;20115;-66
2021/10/09 03:14:06;;;;;;;99.82;36.95;;;10.40;99.90;;;;;;5094730;28;20075;-66
2021/10/09 03:16:31;;;;;;;69.03;32.90;;;10.40;99.90;;;;;;5094342;28;20083;-66
2021/10/09 03:18:57;;;;;;;87.88;33.38;;;10.30;99.90;;;;;;5094381;28;20077;-66
2021/10/09 03:21:23;;;;;;;108.57;36.28;;;10.30;99.90;;;;;;5094418;28;20461;-66
2021/10/09 03:23:48;;;;;;;64.75;33.40;;;10.30;99.90;;;;;;5094536;28;20039;-66
2021/10/09 03:26:14;;;;;;;92.38;35.35;;;10.30;99.90;;;;;;5094452;28;20044;-67
2021/10/09 03:28:40;;;;;;;87.28;35.35;;;10.30;99.90;;;;;;5094055;28;20115;-67
2021/10/09 03:31:05;;;;;;;68.97;32.90;;;10.30;99.90;;;;;;5094457;28;20399;-66
2021/10/09 03:33:32;;;;;;;73.50;31.30;;;10.30;99.90;;;;;;5094465;28;20040;-66
2021/10/09 03:35:57;;;;;;;96.65;39.33;;;10.30;99.90;;;;;;5094210;28;20028;-67
2021/10/09 03:38:23;;;;;;;84.82;37.70;;;10.20;99.90;;;;;;5092335;28;20089;-66
2021/10/09 03:40:54;;;;;;;57.55;32.50;;;10.20;99.90;;;;;;5093565;28;20484;-66
2021/10/09 03:43:22;;;;;;;81.15;34.65;;;10.10;99.90;;;;;;5093291;28;20051;-67
2021/10/09 03:48:32;;;;;;;65.38;32.58;;;10.10;99.90;;;;;;5094082;28;20055;-66
2021/10/09 03:53:44;;;;;;;70.72;33.80;;;10.10;99.90;;;;;;5092527;28;20084;-66
2021/10/09 03:56:10;;;;;;;69.60;34.83;;;10.10;99.90;;;;;;5093800;28;20074;-66
2021/10/09 03:58:36;;;;;;;76.68;33.97;;;10.10;99.90;;;;;;5093798;28;20032;-66
2021/10/09 04:01:01;;;;;;;59.72;34.05;;;10.10;99.90;;;;;;5093785;28;20536;-67
2021/10/09 04:03:27;;;;;;;81.95;35.17;;;10.10;99.90;;;;;;5092890;28;20051;-66
2021/10/09 04:05:52;;;;;;;58.50;31.85;;;10.10;99.90;;;;;;5093441;28;20477;-67
2021/10/09 04:08:18;;;;;;;95.03;37.53;;;10.10;99.90;;;;;;5093632;28;20031;-67
2021/10/09 04:10:45;;;;;;;92.80;36.78;;;10.10;99.90;;;;;;5093384;28;20044;-66
2021/10/09 04:13:10;;;;;;;90.65;36.42;;;10.10;99.90;;;;;;5093482;28;20048;-66
2021/10/09 04:15:36;;;;;;;69.47;35.05;;;10.00;99.90;;;;;;5094113;28;20046;-67
2021/10/09 04:18:01;;;;;;;104.90;39.40;;;10.10;99.90;;;;;;5093052;28;20047;-66
2021/10/09 04:20:27;;;;;;;209.70;50.03;;;10.00;99.90;;;;;;5093155;28;20403;-66
2021/10/09 04:22:52;;;;;;;59.58;33.42;;;10.00;99.90;;;;;;5093641;28;20036;-66
2021/10/09 04:25:18;;;;;;;72.97;37.10;;;10.10;99.90;;;;;;5092280;28;20389;-66
2021/10/09 04:27:45;;;;;;;91.90;38.30;;;10.00;99.90;;;;;;5093428;28;20503;-66
2021/10/09 04:30:11;;;;;;;75.22;38.65;;;10.10;99.90;;;;;;5093304;28;20434;-66
2021/10/09 04:32:36;;;;;;;79.38;39.85;;;10.10;99.90;;;;;;5093246;28;20506;-67
2021/10/09 04:35:02;;;;;;;181.48;52.78;;;10.10;99.90;;;;;;5093992;28;20075;-66
2021/10/09 04:37:28;;;;;;;78.05;40.35;;;10.10;99.90;;;;;;5092032;28;20036;-66
2021/10/09 04:39:54;;;;;;;80.72;38.55;;;10.10;99.90;;;;;;5093111;28;20174;-67
2021/10/09 04:42:19;;;;;;;92.95;40.97;;;10.20;99.90;;;;;;5093234;28;20044;-66
2021/10/09 04:44:45;;;;;;;113.05;45.92;;;10.10;99.90;;;;;;5093437;28;20586;-67
2021/10/09 04:47:10;;;;;;;86.40;41.25;;;10.20;99.90;;;;;;5093420;28;20032;-67
2021/10/09 04:49:36;;;;;;;84.57;42.58;;;10.20;99.90;;;;;;5096319;28;20040;-66
2021/10/09 04:52:02;;;;;;;74.15;41.35;;;10.20;99.90;;;;;;5097244;28;20384;-67
2021/10/09 04:54:27;;;;;;;78.90;43.13;;;10.20;99.90;;;;;;5097518;28;20411;-67
2021/10/09 04:56:53;;;;;;;98.45;45.08;;;10.20;99.90;;;;;;5097284;28;20507;-66
2021/10/09 04:59:18;;;;;;;81.75;43.50;;;10.20;99.90;;;;;;5096766;28;20040;-66
2021/10/09 05:01:44;;;;;;;81.35;42.30;;;10.20;99.90;;;;;;5096960;28;20036;-66
2021/10/09 05:04:09;;;;;;;75.00;43.33;;;10.20;99.90;;;;;;5097103;28;20040;-66
2021/10/09 05:06:35;;;;;;;105.88;49.55;;;10.20;99.90;;;;;;5096700;28;20043;-67
2021/10/09 05:09:00;;;;;;;76.93;43.00;;;10.20;99.90;;;;;;5096436;28;20078;-66
2021/10/09 05:11:26;;;;;;;87.43;44.55;;;10.20;99.90;;;;;;5096745;28;20101;-67
2021/10/09 05:13:52;;;;;;;90.38;45.15;;;10.20;99.90;;;;;;5097287;28;20032;-67
2021/10/09 05:16:18;;;;;;;83.55;43.60;;;10.30;99.90;;;;;;5095694;28;20144;-67
2021/10/09 05:18:43;;;;;;;84.53;42.83;;;10.20;99.90;;;;;;5096860;28;20032;-67
2021/10/09 05:21:10;;;;;;;92.72;46.90;;;10.30;99.90;;;;;;5096771;28;20024;-67
2021/10/09 05:23:37;;;;;;;88.63;44.22;;;10.30;99.90;;;;;;5096685;28;20518;-67
2021/10/09 05:26:04;;;;;;;90.38;47.10;;;10.30;99.90;;;;;;5096797;28;20035;-66
2021/10/09 05:31:11;;;;;;;82.45;43.25;;;10.30;99.90;;;;;;5097114;28;20047;-67
2021/10/09 05:33:38;;;;;;;91.25;44.95;;;10.30;99.90;;;;;;5096500;28;20044;-67
2021/10/09 05:36:04;;;;;;;94.68;46.55;;;10.30;99.90;;;;;;5096822;28;20044;-67
2021/10/09 05:38:30;;;;;;;86.05;45.15;;;10.30;99.90;;;;;;5096681;28;20085;-68
2021/10/09 05:40:57;;;;;;;86.75;45.30;;;10.30;99.90;;;;;;5095319;28;20032;-68
2021/10/09 05:43:23;;;;;;;75.75;42.78;;;10.30;99.90;;;;;;5096452;28;20446;-67
2021/10/09 05:45:49;;;;;;;88.20;44.97;;;10.30;99.90;;;;;;5094940;28;20101;-68
2021/10/09 05:48:15;;;;;;;81.13;43.20;;;10.30;99.90;;;;;;5096488;28;20047;-67
2021/10/09 05:50:57;;;;;;;95.78;48.65;;;10.30;99.90;;;;;;5096123;28;20089;-67
2021/10/09 05:53:49;;;;;;;85.00;44.22;;;10.30;99.90;;;;;;5095848;28;20488;-67
2021/10/09 07:00:39;;;;;;;89.53;44.03;;;10.30;99.90;;;;;;5093478;28;20040;-67
2021/10/09 07:03:05;;;;;;;81.88;44.40;;;10.30;99.90;;;;;;5095145;28;20047;-67
2021/10/09 07:05:33;;;;;;;82.82;41.08;;;10.30;99.90;;;;;;5094767;28;20079;-67
2021/10/09 07:08:05;;;;;;;85.85;43.45;;;10.30;99.90;;;;;;5094761;28;20467;-67
2021/10/09 07:10:30;;;;;;;82.45;44.35;;;10.30;99.90;;;;;;5094499;28;20400;-68
2021/10/09 07:12:56;;;;;;;72.97;41.05;;;10.30;99.90;;;;;;5093395;28;20032;-67
2021/10/09 07:15:22;;;;;;;80.03;42.75;;;10.30;99.90;;;;;;5094606;28;20032;-67
2021/10/09 07:17:48;;;;;;;77.22;42.05;;;10.30;99.90;;;;;;5094334;28;20476;-67
2021/10/09 07:20:14;;;;;;;72.45;40.63;;;10.20;99.90;;;;;;5094306;28;20430;-67
2021/10/09 07:22:39;;;;;;;75.38;41.53;;;10.20;99.90;;;;;;5094776;28;20457;-67
2021/10/09 07:25:06;;;;;;;89.00;45.33;;;10.20;99.90;;;;;;5093301;28;20127;-67
2021/10/09 07:27:32;;;;;;;83.85;41.00;;;10.20;99.90;;;;;;5094358;28;20035;-67
2021/10/09 07:29:57;;;;;;;79.63;42.47;;;10.20;99.90;;;;;;5093887;28;20185;-67
2021/10/09 07:32:23;;;;;;;80.68;42.60;;;10.30;99.90;;;;;;5092916;28;20040;-67
2021/10/09 07:34:49;;;;;;;73.97;40.95;;;10.20;99.90;;;;;;5094351;28;20036;-67
2021/10/09 07:37:14;;;;;;;74.95;39.40;;;10.30;99.90;;;;;;5094160;28;20036;-67
2021/10/09 07:39:40;;;;;;;78.95;43.22;;;10.30;99.90;;;;;;5093962;28;20043;-67
2021/10/09 07:42:05;;;;;;;82.68;41.58;;;10.30;99.90;;;;;;5094104;28;20488;-67
2021/10/09 07:44:31;;;;;;;95.65;41.95;;;10.30;99.90;;;;;;5093843;28;20035;-67
2021/10/09 07:46:57;;;;;;;80.18;42.03;;;10.30;99.90;;;;;;5094418;28;20032;-67
2021/10/09 07:49:22;;;;;;;73.68;40.67;;;10.30;99.90;;;;;;5093969;28;20557;-68
2021/10/09 07:51:48;;;;;;;74.53;41.33;;;10.30;99.90;;;;;;5093982;28;20043;-67
2021/10/09 07:54:14;;;;;;;80.78;43.03;;;10.30;99.90;;;;;;5094039;28;20044;-67
2021/10/09 07:56:40;;;;;;;77.95;41.50;;;10.30;99.90;;;;;;5093882;28;20472;-67
2021/10/09 07:59:08;;;;;;;88.35;42.92;;;10.30;99.90;;;;;;5093406;28;20130;-67
2021/10/09 08:01:34;;;;;;;82.50;41.67;;;10.20;99.90;;;;;;5093850;28;20036;-67
2021/10/09 08:04:00;;;;;;;72.70;38.17;;;10.20;99.90;;;;;;5093614;28;20392;-67
2021/10/09 08:06:26;;;;;;;69.38;39.50;;;10.20;99.90;;;;;;5092534;28;20071;-66
2021/10/09 08:08:52;;;;;;;72.82;39.40;;;10.30;99.90;;;;;;5093491;28;20048;-66
2021/10/09 08:11:18;;;;;;;73.03;39.72;;;10.30;99.90;;;;;;5092664;28;20036;-66
2021/10/09 08:13:44;;;;;;;78.25;40.90;;;10.30;99.90;;;;;;5094067;28;20119;-68
2021/10/09 08:16:10;;;;;;;80.85;43.80;;;10.30;99.90;;;;;;5092053;28;20136;-66
2021/10/09 08:18:35;;;;;;;81.70;43.90;;;10.30;99.90;;;;;;5093739;28;20166;-67
2021/10/09 08:21:04;;;;;;;78.75;41.22;;;10.30;99.90;;;;;;5093623;28;20036;-67
2021/10/09 08:23:38;;;;;;;76.00;41.58;;;10.30;99.90;;;;;;5075308;28;20047;-66
2021/10/09 08:26:59;;;;;;;73.00;40.83;;;10.30;99.90;;;;;;5092569;28;20126;-66
2021/10/09 08:39:44;;;;;;;78.07;41.47;;;10.50;99.90;;;;;;5092941;28;20105;-66
2021/10/09 08:42:11;;;;;;;83.00;40.28;;;10.60;99.90;;;;;;5092102;28;20036;-66
2021/10/09 08:44:38;;;;;;;76.72;41.10;;;10.60;99.90;;;;;;5092432;28;20044;-66
2021/10/09 08:47:04;;;;;;;76.93;41.55;;;10.70;99.90;;;;;;5092414;28;20048;-66
2021/10/09 08:49:33;;;;;;;83.70;42.40;;;10.60;99.90;;;;;;5093019;28;20046;-66
2021/10/09 08:51:59;;;;;;;78.43;42.78;;;10.50;99.90;;;;;;5093266;28;20395;-66
2021/10/09 08:54:34;;;;;;;76.93;41.83;;;10.50;99.90;;;;;;5093074;28;20591;-66
2021/10/09 08:57:10;;;;;;;76.90;41.00;;;10.60;99.90;;;;;;5093212;28;20043;-66
2021/10/09 08:59:46;;;;;;;69.32;38.92;;;10.80;99.90;;;;;;5092938;28;20399;-66
2021/10/09 09:31:06;;;;;;;61.67;36.25;;;11.70;99.90;;;;;;5080556;28;20131;-66
2021/10/09 09:39:05;;;;;;;62.60;35.65;;;11.90;99.90;;;;;;5096296;28;20373;-66
2021/10/09 09:41:47;;;;;;;65.60;35.95;;;12.00;99.90;;;;;;5096351;28;20036;-66
2021/10/09 09:44:15;;;;;;;63.05;35.03;;;12.10;99.90;;;;;;5096491;28;20046;-66
2021/10/09 09:46:42;;;;;;;64.38;37.50;;;12.10;99.90;;;;;;5094895;28;20048;-66
2021/10/09 09:49:09;;;;;;;58.47;35.78;;;12.20;99.90;;;;;;5095938;28;20051;-66
2021/10/09 09:51:38;;;;;;;60.00;32.70;;;12.20;99.90;;;;;;5095968;28;20036;-66
2021/10/09 09:54:05;;;;;;;49.35;32.47;;;12.30;99.90;;;;;;5094883;28;20042;-66
2021/10/09 09:56:30;;;;;;;51.90;30.90;;;12.30;99.90;;;;;;5096455;28;20040;-66
2021/10/09 09:58:59;;;;;;;51.15;31.80;;;12.30;99.90;;;;;;5095830;28;20032;-66
2021/10/09 10:01:31;;;;;;;51.00;31.75;;;12.40;99.90;;;;;;5096359;28;20237;-66
2021/10/09 10:03:59;;;;;;;55.80;32.58;;;12.40;99.90;;;;;;5081281;28;20071;-66
2021/10/09 10:06:28;;;;;;;55.85;32.90;;;12.60;99.90;;;;;;5076152;28;20041;-66
2021/10/09 10:08:56;;;;;;;53.70;32.17;;;12.60;99.90;;;;;;5075415;28;20044;-66
2021/10/09 10:11:22;;;;;;;52.55;29.88;;;12.60;99.90;;;;;;5074719;28;20044;-66
2021/10/09 10:13:50;;;;;;;46.65;28.73;;;12.60;99.90;;;;;;5076166;28;20132;-66
2021/10/09 10:16:17;;;;;;;54.33;30.42;;;12.70;99.90;;;;;;5075200;28;20066;-66
2021/10/09 10:18:46;;;;;;;46.90;28.88;;;12.70;99.90;;;;;;5075142;28;20033;-66
2021/10/09 10:21:13;;;;;;;46.83;28.52;;;12.80;99.90;;;;;;5074006;28;20523;-67
2021/10/09 10:23:44;;;;;;;49.78;31.73;;;12.90;99.90;;;;;;5074170;28;20046;-66
2021/10/09 10:26:32;;;;;;;49.97;28.90;;;12.90;99.90;;;;;;5075214;28;20396;-66
2021/10/09 10:28:57;;;;;;;44.05;27.45;;;13.00;99.90;;;;;;5075187;28;20068;-66
2021/10/09 10:31:25;;;;;;;40.03;26.23;;;12.90;99.90;;;;;;5075080;28;20106;-66
2021/10/09 10:33:58;;;;;;;43.25;25.85;;;13.00;99.90;;;;;;5075306;28;20036;-66
2021/10/09 10:36:46;;;;;;;44.15;25.63;;;13.00;99.90;;;;;;5075237;28;20041;-66
2021/10/09 10:39:17;;;;;;;42.03;25.85;;;13.10;99.90;;;;;;5075107;28;20090;-67
2021/10/09 10:42:06;;;;;;;36.13;23.95;;;13.20;99.90;;;;;;5075208;28;20044;-66
2021/10/09 10:45:00;;;;;;;38.90;23.73;;;13.20;99.90;;;;;;5074064;28;20044;-66
2021/10/09 10:53:36;;;;;;;30.00;19.20;;;13.30;99.90;;;;;;5074974;28;20456;-66
2021/10/09 10:56:09;;;;;;;33.70;19.55;;;13.40;99.90;;;;;;5074887;28;20105;-66
2021/10/09 10:58:36;;;;;;;30.42;18.73;;;13.40;99.90;;;;;;5073259;28;20045;-66
2021/10/09 11:01:24;;;;;;;35.92;18.75;;;13.40;99.90;;;;;;5074632;28;20041;-66
2021/10/09 11:03:56;;;;;;;33.05;18.73;;;13.50;99.90;;;;;;5074498;28;20468;-66
2021/10/09 11:06:24;;;;;;;35.83;20.17;;;13.50;99.90;;;;;;5074819;28;20467;-66
2021/10/09 11:08:51;;;;;;;34.05;19.70;;;13.60;99.90;;;;;;5074507;28;20389;-66
2021/10/09 11:11:31;;;;;;;32.08;18.92;;;13.60;99.90;;;;;;5074462;28;20049;-66
2021/10/09 11:13:57;;;;;;;27.75;17.15;;;13.60;99.90;;;;;;5074475;28;20119;-66
2021/10/09 11:16:30;;;;;;;38.70;18.42;;;13.60;99.90;;;;;;5072650;28;20047;-66
2021/10/09 11:18:55;;;;;;;28.48;18.13;;;13.60;99.90;;;;;;5073927;28;20037;-66
2021/10/09 11:21:22;;;;;;;28.17;19.02;;;13.70;99.90;;;;;;5074251;28;20131;-66
2021/10/09 11:23:55;;;;;;;31.33;20.30;;;13.70;99.90;;;;;;5073961;28;20043;-67
2021/10/09 11:26:22;;;;;;;29.33;18.63;;;13.70;99.90;;;;;;5072688;28;20483;-66
2021/10/09 11:28:59;;;;;;;31.40;17.60;;;13.80;99.90;;;;;;5073775;28;20082;-66
2021/10/09 11:31:26;;;;;;;29.70;17.27;;;13.80;99.90;;;;;;5073885;28;20037;-66
2021/10/09 11:34:00;;;;;;;32.53;19.00;;;13.80;99.90;;;;;;5073839;28;20086;-66
2021/10/09 11:36:27;;;;;;;26.27;18.23;;;13.90;99.90;;;;;;5073936;28;20045;-66
2021/10/09 11:39:12;;;;;;;25.15;17.13;;;13.90;99.90;;;;;;5072126;28;20051;-66
2021/10/09 11:41:39;;;;;;;26.40;17.48;;;13.90;99.90;;;;;;5074169;28;20045;-66
2021/10/09 11:44:25;;;;;;;25.85;17.55;;;13.90;99.00;;;;;;5074194;28;20040;-66
2021/10/09 11:55:24;;;;;;;27.30;16.90;;;14.00;99.90;;;;;;5072525;28;20509;-66
2021/10/09 11:57:50;;;;;;;29.27;16.55;;;14.10;99.20;;;;;;5073388;28;20044;-66
2021/10/09 12:00:28;;;;;;;29.40;17.15;;;14.20;97.60;;;;;;5071839;28;20048;-66
2021/10/09 12:02:58;;;;;;;24.95;16.83;;;14.20;97.00;;;;;;5073690;28;20109;-66
2021/10/09 12:05:32;;;;;;;24.60;14.75;;;14.30;98.40;;;;;;5073523;28;20040;-66
2021/10/09 12:08:28;;;;;;;;;;;14.30;96.80;;;;;;5072644;28;20119;-66
2021/10/09 12:11:23;;;;;;;26.48;15.20;;;14.30;96.40;;;;;;5073255;28;19916;-65
2021/10/09 12:13:53;;;;;;;24.73;15.45;;;14.40;95.80;;;;;;5072029;28;20398;-69
2021/10/09 12:16:23;;;;;;;25.73;14.93;;;14.40;94.70;;;;;;5073239;28;20400;-69
2021/10/09 12:18:54;;;;;;;26.42;16.80;;;14.30;94.60;;;;;;5070544;28;20045;-69
2021/10/09 12:21:24;;;;;;;26.10;15.80;;;14.30;95.50;;;;;;5072673;28;20085;-69
2021/10/09 12:23:52;;;;;;;25.90;14.80;;;14.40;94.80;;;;;;5073257;28;20404;-69
2021/10/09 12:26:18;;;;;;;27.08;17.13;;;14.40;95.30;;;;;;5073298;28;20040;-69
2021/10/09 12:29:03;;;;;;;22.77;15.13;;;14.40;94.70;;;;;;5073300;28;20041;-69
2021/10/09 12:31:38;;;;;;;22.33;15.10;;;14.50;94.60;;;;;;5073082;28;20036;-69
2021/10/09 12:34:03;;;;;;;24.10;15.40;;;14.50;94.40;;;;;;5072140;28;20044;-69
2021/10/09 12:39:27;;;;;;;22.20;14.57;;;14.50;93.40;;;;;;5071613;28;20082;-69
2021/10/09 12:41:54;;;;;;;23.88;15.55;;;14.60;95.00;;;;;;5073354;28;20048;-69
2021/10/09 12:44:21;;;;;;;24.48;15.93;;;14.60;95.20;;;;;;5072976;28;20412;-69
2021/10/09 12:46:48;;;;;;;26.77;15.25;;;14.60;94.60;;;;;;5073022;28;20040;-69
2021/10/09 12:49:14;;;;;;;23.33;15.73;;;14.70;94.00;;;;;;5071526;28;20037;-69
2021/10/09 12:51:40;;;;;;;22.80;15.38;;;14.70;94.30;;;;;;5073038;28;20068;-69
2021/10/09 12:54:07;;;;;;;21.48;14.95;;;14.70;94.90;;;;;;5073280;28;20052;-69
2021/10/09 12:56:34;;;;;;;22.70;14.70;;;14.80;95.20;;;;;;5072907;28;20045;-69
2021/10/09 12:59:00;;;;;;;21.15;14.05;;;14.80;93.60;;;;;;5072783;28;20032;-69
2021/10/09 13:01:26;;;;;;;25.67;14.20;;;14.80;93.10;;;;;;5072835;28;20047;-69
2021/10/09 13:03:51;;;;;;;20.02;14.05;;;14.80;93.50;;;;;;5073123;28;20041;-69
2021/10/09 13:06:17;;;;;;;26.73;15.65;;;14.90;94.30;;;;;;5072939;28;20044;-69
2021/10/09 13:08:43;;;;;;;24.52;15.48;;;14.90;93.60;;;;;;5072782;28;20037;-69
2021/10/09 13:11:08;;;;;;;22.63;15.50;;;15.00;93.50;;;;;;5076496;28;20400;-69
2021/10/09 13:13:34;;;;;;;22.95;14.90;;;15.00;93.00;;;;;;5076439;28;20128;-69
2021/10/09 13:15:59;;;;;;;26.83;14.57;;;15.00;92.70;;;;;;5076514;28;20043;-70
2021/10/09 13:18:25;;;;;;;23.75;14.32;;;15.00;91.30;;;;;;5075203;28;20041;-69
2021/10/09 13:20:50;;;;;;;25.23;14.60;;;15.20;90.80;;;;;;5076467;28;20086;-69
2021/10/09 13:23:16;;;;;;;22.42;14.27;;;15.10;91.10;;;;;;5076621;28;20063;-69
2021/10/09 13:25:42;;;;;;;22.48;14.15;;;15.10;92.00;;;;;;5076680;28;20085;-69
2021/10/09 13:28:07;;;;;;;25.17;13.60;;;15.10;91.40;;;;;;5076201;28;20043;-69
2021/10/09 13:30:34;;;;;;;20.90;14.27;;;15.10;91.80;;;;;;5076000;28;20122;-69
2021/10/09 13:33:02;;;;;;;22.42;15.25;;;15.10;92.60;;;;;;5074961;28;20056;-69
2021/10/09 13:35:29;;;;;;;29.75;15.65;;;15.20;92.30;;;;;;5076118;28;20036;-69
2021/10/09 13:37:58;;;;;;;26.10;16.05;;;15.20;91.10;;;;;;5076010;28;20385;-69
2021/10/09 13:40:24;;;;;;;24.17;13.90;;;15.20;91.10;;;;;;5075648;28;20094;-69
2021/10/09 13:42:49;;;;;;;21.48;13.88;;;15.20;90.60;;;;;;5075989;28;20068;-69
2021/10/09 13:45:15;;;;;;;23.10;13.40;;;15.20;90.30;;;;;;5076299;28;20036;-69
2021/10/09 13:47:41;;;;;;;22.73;14.57;;;15.30;90.30;;;;;;5076119;28;20517;-69
2021/10/09 13:50:07;;;;;;;21.73;13.30;;;15.30;90.20;;;;;;5075967;28;20377;-69
2021/10/09 13:52:33;;;;;;;17.75;12.52;;;15.30;90.20;;;;;;5075987;28;20484;-69
2021/10/09 13:54:59;;;;;;;18.98;12.48;;;15.30;90.60;;;;;;5075775;28;20082;-69
2021/10/09 13:57:24;;;;;;;20.10;13.23;;;15.30;91.00;;;;;;5075927;28;20037;-69
2021/10/09 13:59:50;;;;;;;20.73;13.10;;;15.40;89.70;;;;;;5074472;28;20183;-69
2021/10/09 14:02:16;;;;;;;19.27;11.85;;;15.40;88.60;;;;;;5075684;28;20048;-69
2021/10/09 14:04:42;;;;;;;22.67;12.90;;;15.50;87.40;;;;;;5075773;28;20055;-69
2021/10/09 14:07:08;;;;;;;21.25;13.00;;;15.50;87.30;;;;;;5075671;28;20052;-69
2021/10/09 14:09:33;;;;;;;22.65;14.32;;;15.60;88.20;;;;;;5075019;28;20397;-69
2021/10/09 14:12:00;;;;;;;23.20;11.95;;;15.60;87.60;;;;;;5075499;28;20044;-69
2021/10/09 14:14:25;;;;;;;19.88;12.60;;;15.60;88.10;;;;;;5075601;28;20064;-69
2021/10/09 14:16:51;;;;;;;18.88;12.90;;;15.60;87.70;;;;;;5074160;28;20429;-69
2021/10/09 14:19:17;;;;;;;19.20;12.73;;;15.60;89.70;;;;;;5074986;28;20039;-69
2021/10/09 14:21:43;;;;;;;21.70;12.88;;;15.60;88.10;;;;;;5073786;28;20037;-69
2021/10/09 14:24:09;;;;;;;23.85;12.15;;;15.60;87.00;;;;;;5073918;28;20046;-69
2021/10/09 14:26:35;;;;;;;18.38;12.65;;;15.60;86.00;;;;;;5075562;28;20032;-69
2021/10/09 14:29:01;;;;;;;22.63;11.55;;;15.50;86.80;;;;;;5073693;28;20483;-69
2021/10/09 14:31:26;;;;;;;20.13;12.52;;;15.50;87.70;;;;;;5075295;28;20080;-69
2021/10/09 14:33:52;;;;;;;20.13;12.65;;;15.50;87.60;;;;;;5075418;28;20050;-69
2021/10/09 14:36:18;;;;;;;21.48;12.32;;;15.50;87.20;;;;;;5075408;28;20033;-70
2021/10/09 14:38:43;;;;;;;24.85;12.25;;;15.50;88.00;;;;;;5074988;28;20041;-69
2021/10/09 14:41:09;;;;;;;22.45;12.80;;;15.40;89.40;;;;;;5075069;28;20393;-69
2021/10/09 14:43:35;;;;;;;16.05;11.90;;;15.30;90.10;;;;;;5073749;28;20041;-69
2021/10/09 14:46:30;;;;;;;22.95;12.07;;;15.30;88.70;;;;;;5075160;28;20040;-69
2021/10/09 14:48:54;;;;;;;24.52;12.02;;;15.30;88.30;;;;;;5074326;28;20048;-69
2021/10/09 14:51:26;;;;;;;20.70;13.07;;;15.30;88.80;;;;;;5073413;28;20055;-69
2021/10/09 14:54:11;;;;;;;23.60;11.93;;;15.30;89.30;;;;;;5074526;28;20049;-66
2021/10/09 15:18:26;;;;;;;16.08;11.35;;;15.70;90.40;;;;;;5074280;28;20041;-67